sensor_id;sensor_type;location;lat;lon;timestamp;P1;durP1;ratioP1;P2;durP2;ratioP2
12469;SDS011;36499;46.484;13.832;2022-11-15T00:00:51;7.50;;;6.70;;
12469;SDS011;36499;46.484;13.832;2022-11-15T00:03:20;7.67;;;6.80;;
12469;SDS011;36499;46.484;13.832;2022-11-15T00:05:50;7.80;;;7.00;;
12469;SDS011;36499;46.484;13.832;2022-11-15T00:08:17;7.90;;;6.63;;
12469;SDS011;36499;46.484;13.832;2022-11-15T00:10:53;7.13;;;6.13;;
12469;SDS011;36499;46.484;13.832;2022-11-15T00:13:21;7.73;;;6.70;;
12469;SDS011;36499;46.484;13.832;2022-11-15T00:15:48;7.27;;;6.40;;
12469;SDS011;36499;46.484;13.832;2022-11-15T00:18:17;9.33;;;6.40;;
12469;SDS011;36499;46.484;13.832;2022-11-15T00:20:45;8.93;;;6.40;;
12469;SDS011;36499;46.484;13.832;2022-11-15T00:23:12;6.33;;;5.73;;
12469;SDS011;36499;46.484;13.832;2022-11-15T00:25:39;8.67;;;7.00;;
12469;SDS011;36499;46.484;13.832;2022-11-15T00:28:06;7.73;;;6.93;;
12469;SDS011;36499;46.484;13.832;2022-11-15T00:30:33;7.00;;;6.27;;
12469;SDS011;36499;46.484;13.832;2022-11-15T00:33:04;8.33;;;6.90;;
12469;SDS011;36499;46.484;13.832;2022-11-15T00:35:34;7.73;;;6.73;;
12469;SDS011;36499;46.484;13.832;2022-11-15T00:38:02;7.07;;;5.83;;
12469;SDS011;36499;46.484;13.832;2022-11-15T00:40:29;7.37;;;6.63;;
12469;SDS011;36499;46.484;13.832;2022-11-15T00:42:56;7.70;;;6.77;;
12469;SDS011;36499;46.484;13.832;2022-11-15T00:45:23;7.43;;;6.33;;
12469;SDS011;36499;46.484;13.832;2022-11-15T00:47:51;7.70;;;6.47;;
12469;SDS011;36499;46.484;13.832;2022-11-15T00:50:18;6.63;;;5.93;;
12469;SDS011;36499;46.484;13.832;2022-11-15T00:52:47;7.50;;;6.80;;
12469;SDS011;36499;46.484;13.832;2022-11-15T00:55:14;7.20;;;6.10;;
12469;SDS011;36499;46.484;13.832;2022-11-15T00:57:43;7.53;;;6.07;;
12469;SDS011;36499;46.484;13.832;2022-11-15T01:00:11;7.50;;;6.17;;
12469;SDS011;36499;46.484;13.832;2022-11-15T01:02:39;6.77;;;6.07;;
12469;SDS011;36499;46.484;13.832;2022-11-15T01:05:07;6.80;;;6.10;;
12469;SDS011;36499;46.484;13.832;2022-11-15T01:07:34;6.20;;;5.60;;
12469;SDS011;36499;46.484;13.832;2022-11-15T01:10:03;6.00;;;5.40;;
12469;SDS011;36499;46.484;13.832;2022-11-15T01:12:32;7.30;;;6.40;;
12469;SDS011;36499;46.484;13.832;2022-11-15T01:14:59;7.43;;;6.37;;
12469;SDS011;36499;46.484;13.832;2022-11-15T01:17:27;6.70;;;6.00;;
12469;SDS011;36499;46.484;13.832;2022-11-15T01:19:54;6.90;;;6.20;;
12469;SDS011;36499;46.484;13.832;2022-11-15T01:22:21;8.30;;;5.83;;
12469;SDS011;36499;46.484;13.832;2022-11-15T01:24:49;7.33;;;6.57;;
12469;SDS011;36499;46.484;13.832;2022-11-15T01:27:18;7.20;;;6.47;;
12469;SDS011;36499;46.484;13.832;2022-11-15T01:29:45;9.27;;;7.77;;
12469;SDS011;36499;46.484;13.832;2022-11-15T01:32:12;8.87;;;7.13;;
12469;SDS011;36499;46.484;13.832;2022-11-15T01:34:39;11.33;;;7.73;;
12469;SDS011;36499;46.484;13.832;2022-11-15T01:37:06;9.83;;;7.07;;
12469;SDS011;36499;46.484;13.832;2022-11-15T01:39:34;8.80;;;7.00;;
12469;SDS011;36499;46.484;13.832;2022-11-15T01:42:01;9.83;;;7.47;;
12469;SDS011;36499;46.484;13.832;2022-11-15T01:44:36;15.40;;;10.20;;
12469;SDS011;36499;46.484;13.832;2022-11-15T01:47:09;7.67;;;6.57;;
12469;SDS011;36499;46.484;13.832;2022-11-15T01:49:43;7.73;;;6.40;;
12469;SDS011;36499;46.484;13.832;2022-11-15T01:52:19;7.07;;;5.83;;
12469;SDS011;36499;46.484;13.832;2022-11-15T01:54:50;9.03;;;5.83;;
12469;SDS011;36499;46.484;13.832;2022-11-15T01:57:22;6.67;;;5.80;;
12469;SDS011;36499;46.484;13.832;2022-11-15T01:59:51;9.27;;;7.00;;
12469;SDS011;36499;46.484;13.832;2022-11-15T02:02:18;6.67;;;5.90;;
12469;SDS011;36499;46.484;13.832;2022-11-15T02:04:46;8.37;;;6.43;;
12469;SDS011;36499;46.484;13.832;2022-11-15T02:07:15;13.90;;;8.67;;
12469;SDS011;36499;46.484;13.832;2022-11-15T02:09:45;5.67;;;5.17;;
12469;SDS011;36499;46.484;13.832;2022-11-15T02:12:14;5.20;;;4.70;;
12469;SDS011;36499;46.484;13.832;2022-11-15T02:14:46;6.80;;;5.60;;
12469;SDS011;36499;46.484;13.832;2022-11-15T02:17:26;5.77;;;5.17;;
12469;SDS011;36499;46.484;13.832;2022-11-15T02:20:23;5.77;;;5.17;;
12469;SDS011;36499;46.484;13.832;2022-11-15T02:23:27;6.43;;;5.53;;
12469;SDS011;36499;46.484;13.832;2022-11-15T02:26:42;6.53;;;5.03;;
12469;SDS011;36499;46.484;13.832;2022-11-15T02:32:47;6.90;;;5.83;;
12469;SDS011;36499;46.484;13.832;2022-11-15T02:35:23;6.80;;;5.30;;
12469;SDS011;36499;46.484;13.832;2022-11-15T02:38:04;5.03;;;4.53;;
12469;SDS011;36499;46.484;13.832;2022-11-15T02:40:44;5.00;;;4.50;;
12469;SDS011;36499;46.484;13.832;2022-11-15T02:43:21;5.07;;;4.57;;
12469;SDS011;36499;46.484;13.832;2022-11-15T02:46:14;4.93;;;4.47;;
12469;SDS011;36499;46.484;13.832;2022-11-15T02:49:08;5.73;;;5.17;;
12469;SDS011;36499;46.484;13.832;2022-11-15T02:51:37;9.23;;;8.23;;
12469;SDS011;36499;46.484;13.832;2022-11-15T02:54:07;5.13;;;4.63;;
12469;SDS011;36499;46.484;13.832;2022-11-15T02:56:38;5.77;;;5.17;;
12469;SDS011;36499;46.484;13.832;2022-11-15T02:59:13;5.07;;;4.57;;
12469;SDS011;36499;46.484;13.832;2022-11-15T03:02:07;4.87;;;3.93;;
12469;SDS011;36499;46.484;13.832;2022-11-15T03:04:57;4.63;;;4.23;;
12469;SDS011;36499;46.484;13.832;2022-11-15T03:07:37;4.60;;;4.10;;
12469;SDS011;36499;46.484;13.832;2022-11-15T03:10:20;4.60;;;3.97;;
12469;SDS011;36499;46.484;13.832;2022-11-15T03:12:57;4.73;;;4.13;;
12469;SDS011;36499;46.484;13.832;2022-11-15T03:15:36;4.23;;;3.83;;
12469;SDS011;36499;46.484;13.832;2022-11-15T03:18:13;5.67;;;4.17;;
12469;SDS011;36499;46.484;13.832;2022-11-15T03:20:49;3.77;;;3.47;;
12469;SDS011;36499;46.484;13.832;2022-11-15T03:23:18;3.60;;;3.30;;
12469;SDS011;36499;46.484;13.832;2022-11-15T03:25:46;3.30;;;3.00;;
12469;SDS011;36499;46.484;13.832;2022-11-15T03:28:17;3.93;;;3.23;;
12469;SDS011;36499;46.484;13.832;2022-11-15T03:30:51;3.63;;;3.33;;
12469;SDS011;36499;46.484;13.832;2022-11-15T03:33:22;4.10;;;3.67;;
12469;SDS011;36499;46.484;13.832;2022-11-15T03:35:51;3.60;;;3.30;;
12469;SDS011;36499;46.484;13.832;2022-11-15T03:38:21;4.10;;;3.73;;
12469;SDS011;36499;46.484;13.832;2022-11-15T03:40:54;4.57;;;3.67;;
12469;SDS011;36499;46.484;13.832;2022-11-15T03:43:28;4.00;;;3.60;;
12469;SDS011;36499;46.484;13.832;2022-11-15T03:46:07;4.83;;;3.57;;
12469;SDS011;36499;46.484;13.832;2022-11-15T03:48:43;7.37;;;4.10;;
12469;SDS011;36499;46.484;13.832;2022-11-15T03:51:31;5.73;;;4.00;;
12469;SDS011;36499;46.484;13.832;2022-11-15T03:53:58;4.63;;;4.00;;
12469;SDS011;36499;46.484;13.832;2022-11-15T03:56:28;4.17;;;3.77;;
12469;SDS011;36499;46.484;13.832;2022-11-15T03:58:55;3.63;;;3.33;;
12469;SDS011;36499;46.484;13.832;2022-11-15T04:01:22;4.47;;;4.03;;
12469;SDS011;36499;46.484;13.832;2022-11-15T04:03:51;4.60;;;3.60;;
12469;SDS011;36499;46.484;13.832;2022-11-15T04:06:18;4.73;;;4.20;;
12469;SDS011;36499;46.484;13.832;2022-11-15T04:08:45;5.40;;;4.13;;
12469;SDS011;36499;46.484;13.832;2022-11-15T04:11:12;5.00;;;4.50;;
12469;SDS011;36499;46.484;13.832;2022-11-15T04:13:39;6.30;;;4.50;;
12469;SDS011;36499;46.484;13.832;2022-11-15T04:16:07;5.27;;;4.77;;
12469;SDS011;36499;46.484;13.832;2022-11-15T04:18:34;4.97;;;4.47;;
12469;SDS011;36499;46.484;13.832;2022-11-15T04:21:03;4.63;;;4.20;;
12469;SDS011;36499;46.484;13.832;2022-11-15T04:23:56;4.50;;;4.10;;
12469;SDS011;36499;46.484;13.832;2022-11-15T04:26:38;5.53;;;4.70;;
12469;SDS011;36499;46.484;13.832;2022-11-15T04:29:05;5.00;;;4.50;;
12469;SDS011;36499;46.484;13.832;2022-11-15T04:31:50;4.40;;;4.00;;
12469;SDS011;36499;46.484;13.832;2022-11-15T04:34:17;5.10;;;4.60;;
12469;SDS011;36499;46.484;13.832;2022-11-15T04:36:45;4.83;;;4.23;;
12469;SDS011;36499;46.484;13.832;2022-11-15T04:39:30;4.20;;;3.80;;
12469;SDS011;36499;46.484;13.832;2022-11-15T04:41:57;4.23;;;3.83;;
12469;SDS011;36499;46.484;13.832;2022-11-15T04:44:24;4.53;;;4.13;;
12469;SDS011;36499;46.484;13.832;2022-11-15T04:46:51;3.50;;;3.20;;
12469;SDS011;36499;46.484;13.832;2022-11-15T04:49:18;3.97;;;3.57;;
12469;SDS011;36499;46.484;13.832;2022-11-15T04:51:46;3.93;;;3.50;;
12469;SDS011;36499;46.484;13.832;2022-11-15T04:54:13;3.80;;;3.40;;
12469;SDS011;36499;46.484;13.832;2022-11-15T04:56:40;7.63;;;5.80;;
12469;SDS011;36499;46.484;13.832;2022-11-15T04:59:07;8.63;;;6.20;;
12469;SDS011;36499;46.484;13.832;2022-11-15T05:01:34;5.80;;;4.53;;
12469;SDS011;36499;46.484;13.832;2022-11-15T05:04:02;5.53;;;3.93;;
12469;SDS011;36499;46.484;13.832;2022-11-15T05:06:51;4.30;;;3.90;;
12469;SDS011;36499;46.484;13.832;2022-11-15T05:09:18;5.07;;;4.00;;
12469;SDS011;36499;46.484;13.832;2022-11-15T05:11:47;5.80;;;4.30;;
12469;SDS011;36499;46.484;13.832;2022-11-15T05:14:15;4.07;;;3.60;;
12469;SDS011;36499;46.484;13.832;2022-11-15T05:16:42;3.90;;;3.07;;
12469;SDS011;36499;46.484;13.832;2022-11-15T05:19:09;3.63;;;3.33;;
12469;SDS011;36499;46.484;13.832;2022-11-15T05:21:36;3.77;;;3.23;;
12469;SDS011;36499;46.484;13.832;2022-11-15T05:24:05;3.73;;;2.47;;
12469;SDS011;36499;46.484;13.832;2022-11-15T05:26:35;2.40;;;2.20;;
12469;SDS011;36499;46.484;13.832;2022-11-15T05:29:02;2.30;;;2.10;;
12469;SDS011;36499;46.484;13.832;2022-11-15T05:31:29;3.13;;;2.33;;
12469;SDS011;36499;46.484;13.832;2022-11-15T05:34:04;4.43;;;2.70;;
12469;SDS011;36499;46.484;13.832;2022-11-15T05:36:33;3.07;;;2.70;;
12469;SDS011;36499;46.484;13.832;2022-11-15T05:39:04;3.83;;;3.20;;
12469;SDS011;36499;46.484;13.832;2022-11-15T05:41:34;3.90;;;3.60;;
12469;SDS011;36499;46.484;13.832;2022-11-15T05:44:07;3.67;;;3.20;;
12469;SDS011;36499;46.484;13.832;2022-11-15T05:46:40;5.80;;;3.57;;
12469;SDS011;36499;46.484;13.832;2022-11-15T05:49:10;5.40;;;3.60;;
12469;SDS011;36499;46.484;13.832;2022-11-15T05:51:43;3.87;;;3.47;;
12469;SDS011;36499;46.484;13.832;2022-11-15T05:54:14;5.93;;;4.47;;
12469;SDS011;36499;46.484;13.832;2022-11-15T05:56:43;9.67;;;5.20;;
12469;SDS011;36499;46.484;13.832;2022-11-15T05:59:11;5.00;;;4.17;;
12469;SDS011;36499;46.484;13.832;2022-11-15T06:01:39;4.57;;;3.73;;
12469;SDS011;36499;46.484;13.832;2022-11-15T06:04:06;5.73;;;3.17;;
12469;SDS011;36499;46.484;13.832;2022-11-15T06:06:33;3.60;;;3.30;;
12469;SDS011;36499;46.484;13.832;2022-11-15T06:09:00;3.47;;;3.17;;
12469;SDS011;36499;46.484;13.832;2022-11-15T06:11:29;3.43;;;3.13;;
12469;SDS011;36499;46.484;13.832;2022-11-15T06:13:56;4.30;;;3.90;;
12469;SDS011;36499;46.484;13.832;2022-11-15T06:16:23;3.60;;;2.87;;
12469;SDS011;36499;46.484;13.832;2022-11-15T06:18:50;3.90;;;3.10;;
12469;SDS011;36499;46.484;13.832;2022-11-15T06:21:17;4.17;;;3.40;;
12469;SDS011;36499;46.484;13.832;2022-11-15T06:23:44;3.67;;;3.27;;
12469;SDS011;36499;46.484;13.832;2022-11-15T06:26:11;4.53;;;3.20;;
12469;SDS011;36499;46.484;13.832;2022-11-15T06:28:40;3.83;;;3.33;;
12469;SDS011;36499;46.484;13.832;2022-11-15T06:31:07;5.10;;;4.40;;
12469;SDS011;36499;46.484;13.832;2022-11-15T06:33:37;4.43;;;3.87;;
12469;SDS011;36499;46.484;13.832;2022-11-15T06:36:06;5.20;;;3.93;;
12469;SDS011;36499;46.484;13.832;2022-11-15T06:38:35;3.83;;;3.20;;
12469;SDS011;36499;46.484;13.832;2022-11-15T06:41:03;3.50;;;3.20;;
12469;SDS011;36499;46.484;13.832;2022-11-15T06:43:32;3.60;;;3.30;;
12469;SDS011;36499;46.484;13.832;2022-11-15T06:46:02;3.83;;;3.50;;
12469;SDS011;36499;46.484;13.832;2022-11-15T06:48:31;3.83;;;3.53;;
12469;SDS011;36499;46.484;13.832;2022-11-15T06:51:00;4.67;;;4.27;;
12469;SDS011;36499;46.484;13.832;2022-11-15T06:53:29;5.10;;;4.00;;
12469;SDS011;36499;46.484;13.832;2022-11-15T06:55:58;4.07;;;3.67;;
12469;SDS011;36499;46.484;13.832;2022-11-15T06:58:26;4.13;;;3.73;;
12469;SDS011;36499;46.484;13.832;2022-11-15T07:00:57;3.67;;;3.37;;
12469;SDS011;36499;46.484;13.832;2022-11-15T07:03:27;4.10;;;3.70;;
12469;SDS011;36499;46.484;13.832;2022-11-15T07:05:56;4.40;;;4.00;;
12469;SDS011;36499;46.484;13.832;2022-11-15T07:08:24;5.00;;;4.00;;
12469;SDS011;36499;46.484;13.832;2022-11-15T07:10:54;4.17;;;3.77;;
12469;SDS011;36499;46.484;13.832;2022-11-15T07:13:24;4.93;;;4.07;;
12469;SDS011;36499;46.484;13.832;2022-11-15T07:15:52;4.17;;;3.77;;
12469;SDS011;36499;46.484;13.832;2022-11-15T07:18:19;4.13;;;3.53;;
12469;SDS011;36499;46.484;13.832;2022-11-15T07:20:48;7.10;;;3.77;;
12469;SDS011;36499;46.484;13.832;2022-11-15T07:23:15;4.50;;;4.10;;
12469;SDS011;36499;46.484;13.832;2022-11-15T07:25:42;4.43;;;4.03;;
12469;SDS011;36499;46.484;13.832;2022-11-15T07:28:09;4.90;;;4.50;;
12469;SDS011;36499;46.484;13.832;2022-11-15T07:30:36;4.57;;;4.17;;
12469;SDS011;36499;46.484;13.832;2022-11-15T07:33:03;4.27;;;3.87;;
12469;SDS011;36499;46.484;13.832;2022-11-15T07:35:30;6.80;;;3.90;;
12469;SDS011;36499;46.484;13.832;2022-11-15T07:38:00;6.13;;;3.50;;
12469;SDS011;36499;46.484;13.832;2022-11-15T07:40:29;3.77;;;3.47;;
12469;SDS011;36499;46.484;13.832;2022-11-15T07:43:01;3.73;;;3.43;;
12469;SDS011;36499;46.484;13.832;2022-11-15T07:45:30;4.43;;;3.17;;
12469;SDS011;36499;46.484;13.832;2022-11-15T07:47:59;3.63;;;3.33;;
12469;SDS011;36499;46.484;13.832;2022-11-15T07:50:26;4.10;;;3.23;;
12469;SDS011;36499;46.484;13.832;2022-11-15T07:52:54;4.20;;;3.47;;
12469;SDS011;36499;46.484;13.832;2022-11-15T07:55:24;7.70;;;3.70;;
12469;SDS011;36499;46.484;13.832;2022-11-15T07:57:53;5.67;;;3.40;;
12469;SDS011;36499;46.484;13.832;2022-11-15T08:00:26;5.70;;;3.70;;
12469;SDS011;36499;46.484;13.832;2022-11-15T08:03:00;3.50;;;3.20;;
12469;SDS011;36499;46.484;13.832;2022-11-15T08:05:29;4.63;;;3.60;;
12469;SDS011;36499;46.484;13.832;2022-11-15T08:07:56;3.53;;;3.10;;
12469;SDS011;36499;46.484;13.832;2022-11-15T08:10:25;3.60;;;3.30;;
12469;SDS011;36499;46.484;13.832;2022-11-15T08:12:56;4.20;;;3.80;;
12469;SDS011;36499;46.484;13.832;2022-11-15T08:15:25;4.40;;;4.00;;
12469;SDS011;36499;46.484;13.832;2022-11-15T08:17:53;4.23;;;3.83;;
12469;SDS011;36499;46.484;13.832;2022-11-15T08:20:21;3.50;;;3.20;;
12469;SDS011;36499;46.484;13.832;2022-11-15T08:22:49;3.50;;;3.20;;
12469;SDS011;36499;46.484;13.832;2022-11-15T08:25:16;4.57;;;3.67;;
12469;SDS011;36499;46.484;13.832;2022-11-15T08:27:45;5.63;;;3.50;;
12469;SDS011;36499;46.484;13.832;2022-11-15T08:30:12;4.27;;;3.57;;
12469;SDS011;36499;46.484;13.832;2022-11-15T08:32:41;4.00;;;3.60;;
12469;SDS011;36499;46.484;13.832;2022-11-15T08:35:08;6.10;;;4.53;;
12469;SDS011;36499;46.484;13.832;2022-11-15T08:37:35;5.77;;;4.23;;
12469;SDS011;36499;46.484;13.832;2022-11-15T08:40:03;4.60;;;4.10;;
12469;SDS011;36499;46.484;13.832;2022-11-15T08:42:32;4.47;;;3.97;;
12469;SDS011;36499;46.484;13.832;2022-11-15T08:45:01;4.43;;;3.70;;
12469;SDS011;36499;46.484;13.832;2022-11-15T08:47:29;4.77;;;3.87;;
12469;SDS011;36499;46.484;13.832;2022-11-15T08:49:56;3.43;;;3.13;;
12469;SDS011;36499;46.484;13.832;2022-11-15T08:52:23;4.93;;;3.80;;
12469;SDS011;36499;46.484;13.832;2022-11-15T08:54:50;7.57;;;3.30;;
12469;SDS011;36499;46.484;13.832;2022-11-15T08:57:17;4.27;;;3.50;;
12469;SDS011;36499;46.484;13.832;2022-11-15T08:59:44;4.23;;;3.83;;
12469;SDS011;36499;46.484;13.832;2022-11-15T09:02:13;5.50;;;4.33;;
12469;SDS011;36499;46.484;13.832;2022-11-15T09:04:40;5.20;;;4.10;;
12469;SDS011;36499;46.484;13.832;2022-11-15T09:07:10;9.90;;;5.90;;
12469;SDS011;36499;46.484;13.832;2022-11-15T09:09:38;9.93;;;6.17;;
12469;SDS011;36499;46.484;13.832;2022-11-15T09:12:06;7.30;;;5.57;;
12469;SDS011;36499;46.484;13.832;2022-11-15T09:14:34;4.77;;;4.27;;
12469;SDS011;36499;46.484;13.832;2022-11-15T09:17:01;8.03;;;4.30;;
12469;SDS011;36499;46.484;13.832;2022-11-15T09:19:30;4.27;;;3.87;;
12469;SDS011;36499;46.484;13.832;2022-11-15T09:21:57;5.23;;;4.33;;
12469;SDS011;36499;46.484;13.832;2022-11-15T09:24:24;4.47;;;4.03;;
12469;SDS011;36499;46.484;13.832;2022-11-15T09:26:51;4.17;;;3.57;;
12469;SDS011;36499;46.484;13.832;2022-11-15T09:29:18;3.97;;;3.03;;
12469;SDS011;36499;46.484;13.832;2022-11-15T09:31:45;4.17;;;3.77;;
12469;SDS011;36499;46.484;13.832;2022-11-15T09:34:13;3.97;;;3.57;;
12469;SDS011;36499;46.484;13.832;2022-11-15T09:36:41;116.17;;;7.43;;
12469;SDS011;36499;46.484;13.832;2022-11-15T09:39:08;86.27;;;6.83;;
12469;SDS011;36499;46.484;13.832;2022-11-15T09:44:37;37.20;;;5.53;;
12469;SDS011;36499;46.484;13.832;2022-11-15T09:47:24;5.13;;;2.90;;
12469;SDS011;36499;46.484;13.832;2022-11-15T09:50:27;46.67;;;6.40;;
12469;SDS011;36499;46.484;13.832;2022-11-15T09:53:03;15.40;;;3.93;;
12469;SDS011;36499;46.484;13.832;2022-11-15T09:55:34;7.17;;;3.23;;
12469;SDS011;36499;46.484;13.832;2022-11-15T09:58:10;29.40;;;3.40;;
12469;SDS011;36499;46.484;13.832;2022-11-15T10:00:50;19.90;;;3.50;;
12469;SDS011;36499;46.484;13.832;2022-11-15T10:03:21;5.17;;;2.93;;
12469;SDS011;36499;46.484;13.832;2022-11-15T10:05:55;7.23;;;3.00;;
12469;SDS011;36499;46.484;13.832;2022-11-15T10:08:45;3.13;;;2.70;;
12469;SDS011;36499;46.484;13.832;2022-11-15T10:11:24;7.27;;;5.50;;
12469;SDS011;36499;46.484;13.832;2022-11-15T10:13:55;6.30;;;5.33;;
12469;SDS011;36499;46.484;13.832;2022-11-15T10:16:39;3.73;;;2.90;;
12469;SDS011;36499;46.484;13.832;2022-11-15T10:19:35;2.80;;;2.60;;
12469;SDS011;36499;46.484;13.832;2022-11-15T10:22:25;2.97;;;2.67;;
12469;SDS011;36499;46.484;13.832;2022-11-15T10:25:12;2.80;;;2.50;;
12469;SDS011;36499;46.484;13.832;2022-11-15T10:27:54;2.90;;;2.50;;
12469;SDS011;36499;46.484;13.832;2022-11-15T10:30:29;2.53;;;2.33;;
12469;SDS011;36499;46.484;13.832;2022-11-15T10:38:53;3.87;;;3.27;;
12469;SDS011;36499;46.484;13.832;2022-11-15T10:41:38;2.93;;;2.63;;
12469;SDS011;36499;46.484;13.832;2022-11-15T10:44:11;2.50;;;2.10;;
12469;SDS011;36499;46.484;13.832;2022-11-15T10:50:00;2.20;;;2.00;;
12469;SDS011;36499;46.484;13.832;2022-11-15T10:52:33;2.70;;;2.50;;
12469;SDS011;36499;46.484;13.832;2022-11-15T10:55:05;2.60;;;2.40;;
12469;SDS011;36499;46.484;13.832;2022-11-15T10:57:52;2.50;;;2.30;;
12469;SDS011;36499;46.484;13.832;2022-11-15T11:00:27;3.10;;;2.80;;
12469;SDS011;36499;46.484;13.832;2022-11-15T11:03:01;4.40;;;4.00;;
12469;SDS011;36499;46.484;13.832;2022-11-15T11:05:36;3.20;;;2.43;;
12469;SDS011;36499;46.484;13.832;2022-11-15T11:08:18;2.60;;;2.40;;
12469;SDS011;36499;46.484;13.832;2022-11-15T11:10:51;2.40;;;2.20;;
12469;SDS011;36499;46.484;13.832;2022-11-15T11:13:22;2.67;;;2.47;;
12469;SDS011;36499;46.484;13.832;2022-11-15T11:15:53;3.20;;;2.40;;
12469;SDS011;36499;46.484;13.832;2022-11-15T11:18:36;2.40;;;2.20;;
12469;SDS011;36499;46.484;13.832;2022-11-15T11:21:15;4.67;;;2.57;;
12469;SDS011;36499;46.484;13.832;2022-11-15T11:23:52;3.43;;;2.50;;
12469;SDS011;36499;46.484;13.832;2022-11-15T11:26:35;2.93;;;2.67;;
12469;SDS011;36499;46.484;13.832;2022-11-15T11:29:20;4.17;;;2.50;;
12469;SDS011;36499;46.484;13.832;2022-11-15T11:32:07;3.17;;;2.70;;
12469;SDS011;36499;46.484;13.832;2022-11-15T11:34:58;4.33;;;3.13;;
12469;SDS011;36499;46.484;13.832;2022-11-15T11:37:39;4.47;;;3.90;;
12469;SDS011;36499;46.484;13.832;2022-11-15T11:40:22;4.70;;;4.30;;
12469;SDS011;36499;46.484;13.832;2022-11-15T11:42:58;5.83;;;5.10;;
12469;SDS011;36499;46.484;13.832;2022-11-15T11:45:47;15.27;;;10.57;;
12469;SDS011;36499;46.484;13.832;2022-11-15T11:48:36;6.40;;;5.80;;
12469;SDS011;36499;46.484;13.832;2022-11-15T11:51:11;5.90;;;5.30;;
12469;SDS011;36499;46.484;13.832;2022-11-15T11:53:46;7.30;;;5.33;;
12469;SDS011;36499;46.484;13.832;2022-11-15T11:56:22;6.27;;;5.30;;
12469;SDS011;36499;46.484;13.832;2022-11-15T11:58:55;6.27;;;5.50;;
12469;SDS011;36499;46.484;13.832;2022-11-15T12:01:34;6.00;;;5.43;;
12469;SDS011;36499;46.484;13.832;2022-11-15T12:04:09;6.87;;;6.17;;
12469;SDS011;36499;46.484;13.832;2022-11-15T12:06:45;9.13;;;6.43;;
12469;SDS011;36499;46.484;13.832;2022-11-15T12:09:20;7.53;;;6.60;;
12469;SDS011;36499;46.484;13.832;2022-11-15T12:11:56;7.83;;;6.47;;
12469;SDS011;36499;46.484;13.832;2022-11-15T12:14:36;8.33;;;6.90;;
12469;SDS011;36499;46.484;13.832;2022-11-15T12:17:13;8.83;;;6.63;;
12469;SDS011;36499;46.484;13.832;2022-11-15T12:19:47;7.37;;;6.53;;
12469;SDS011;36499;46.484;13.832;2022-11-15T12:22:16;8.17;;;7.23;;
12469;SDS011;36499;46.484;13.832;2022-11-15T12:24:51;9.80;;;7.93;;
12469;SDS011;36499;46.484;13.832;2022-11-15T12:27:28;8.53;;;7.40;;
12469;SDS011;36499;46.484;13.832;2022-11-15T12:30:04;7.80;;;6.53;;
12469;SDS011;36499;46.484;13.832;2022-11-15T12:32:48;8.27;;;7.07;;
12469;SDS011;36499;46.484;13.832;2022-11-15T12:35:30;10.13;;;6.73;;
12469;SDS011;36499;46.484;13.832;2022-11-15T12:38:03;7.60;;;6.80;;
12469;SDS011;36499;46.484;13.832;2022-11-15T12:40:36;11.20;;;6.80;;
12469;SDS011;36499;46.484;13.832;2022-11-15T12:46:08;7.57;;;6.53;;
12469;SDS011;36499;46.484;13.832;2022-11-15T12:48:50;10.40;;;7.40;;
12469;SDS011;36499;46.484;13.832;2022-11-15T12:52:03;13.63;;;8.73;;
12469;SDS011;36499;46.484;13.832;2022-11-15T12:54:52;13.93;;;9.43;;
12469;SDS011;36499;46.484;13.832;2022-11-15T12:57:29;10.80;;;8.33;;
12469;SDS011;36499;46.484;13.832;2022-11-15T13:03:20;13.83;;;8.73;;
12469;SDS011;36499;46.484;13.832;2022-11-15T13:06:01;9.63;;;7.80;;
12469;SDS011;36499;46.484;13.832;2022-11-15T13:08:39;10.13;;;8.40;;
12469;SDS011;36499;46.484;13.832;2022-11-15T13:17:25;9.20;;;8.03;;
12469;SDS011;36499;46.484;13.832;2022-11-15T13:20:07;8.63;;;7.73;;
12469;SDS011;36499;46.484;13.832;2022-11-15T13:22:53;8.80;;;7.90;;
12469;SDS011;36499;46.484;13.832;2022-11-15T13:25:52;11.20;;;8.30;;
12469;SDS011;36499;46.484;13.832;2022-11-15T13:28:37;12.53;;;8.40;;
12469;SDS011;36499;46.484;13.832;2022-11-15T13:31:24;9.87;;;8.50;;
12469;SDS011;36499;46.484;13.832;2022-11-15T13:34:12;9.13;;;8.10;;
12469;SDS011;36499;46.484;13.832;2022-11-15T13:36:50;9.90;;;8.60;;
12469;SDS011;36499;46.484;13.832;2022-11-15T13:39:25;11.83;;;8.83;;
12469;SDS011;36499;46.484;13.832;2022-11-15T13:41:55;9.73;;;8.60;;
12469;SDS011;36499;46.484;13.832;2022-11-15T13:44:23;10.17;;;8.43;;
12469;SDS011;36499;46.484;13.832;2022-11-15T13:49:40;12.13;;;9.47;;
12469;SDS011;36499;46.484;13.832;2022-11-15T13:52:09;10.63;;;8.73;;
12469;SDS011;36499;46.484;13.832;2022-11-15T13:54:44;10.40;;;8.57;;
12469;SDS011;36499;46.484;13.832;2022-11-15T13:57:21;14.90;;;8.73;;
12469;SDS011;36499;46.484;13.832;2022-11-15T13:59:53;34.90;;;26.17;;
12469;SDS011;36499;46.484;13.832;2022-11-15T14:02:26;18.53;;;14.70;;
12469;SDS011;36499;46.484;13.832;2022-11-15T14:05:02;12.93;;;10.07;;
12469;SDS011;36499;46.484;13.832;2022-11-15T14:07:44;12.23;;;9.50;;
12469;SDS011;36499;46.484;13.832;2022-11-15T14:10:29;13.20;;;9.70;;
12469;SDS011;36499;46.484;13.832;2022-11-15T14:12:58;10.70;;;9.33;;
12469;SDS011;36499;46.484;13.832;2022-11-15T14:15:28;13.43;;;9.47;;
12469;SDS011;36499;46.484;13.832;2022-11-15T14:17:58;12.90;;;9.70;;
12469;SDS011;36499;46.484;13.832;2022-11-15T14:20:27;12.63;;;9.73;;
12469;SDS011;36499;46.484;13.832;2022-11-15T14:22:58;12.87;;;9.87;;
12469;SDS011;36499;46.484;13.832;2022-11-15T14:25:29;11.47;;;9.10;;
12469;SDS011;36499;46.484;13.832;2022-11-15T14:28:08;11.20;;;9.00;;
12469;SDS011;36499;46.484;13.832;2022-11-15T14:30:42;10.77;;;8.47;;
12469;SDS011;36499;46.484;13.832;2022-11-15T14:33:18;12.13;;;8.70;;
12469;SDS011;36499;46.484;13.832;2022-11-15T14:35:50;11.57;;;8.90;;
12469;SDS011;36499;46.484;13.832;2022-11-15T14:38:18;11.10;;;9.07;;
12469;SDS011;36499;46.484;13.832;2022-11-15T14:40:47;11.13;;;9.30;;
12469;SDS011;36499;46.484;13.832;2022-11-15T14:43:14;12.27;;;9.23;;
12469;SDS011;36499;46.484;13.832;2022-11-15T14:45:42;12.83;;;9.43;;
12469;SDS011;36499;46.484;13.832;2022-11-15T14:48:09;13.30;;;8.93;;
12469;SDS011;36499;46.484;13.832;2022-11-15T14:50:36;12.50;;;9.43;;
12469;SDS011;36499;46.484;13.832;2022-11-15T14:53:03;11.87;;;8.77;;
12469;SDS011;36499;46.484;13.832;2022-11-15T14:55:32;10.80;;;9.03;;
12469;SDS011;36499;46.484;13.832;2022-11-15T14:58:03;11.33;;;7.37;;
12469;SDS011;36499;46.484;13.832;2022-11-15T15:00:33;7.30;;;5.83;;
12469;SDS011;36499;46.484;13.832;2022-11-15T15:03:01;8.87;;;7.33;;
12469;SDS011;36499;46.484;13.832;2022-11-15T15:05:32;10.30;;;6.83;;
12469;SDS011;36499;46.484;13.832;2022-11-15T15:08:01;8.77;;;7.47;;
12469;SDS011;36499;46.484;13.832;2022-11-15T15:10:31;9.03;;;6.63;;
12469;SDS011;36499;46.484;13.832;2022-11-15T15:13:03;6.80;;;5.97;;
12469;SDS011;36499;46.484;13.832;2022-11-15T15:15:31;8.80;;;5.73;;
12469;SDS011;36499;46.484;13.832;2022-11-15T15:18:01;6.73;;;5.50;;
12469;SDS011;36499;46.484;13.832;2022-11-15T15:20:29;9.37;;;6.93;;
12469;SDS011;36499;46.484;13.832;2022-11-15T15:22:57;8.40;;;7.03;;
12469;SDS011;36499;46.484;13.832;2022-11-15T15:25:26;6.77;;;6.03;;
12469;SDS011;36499;46.484;13.832;2022-11-15T15:27:56;6.97;;;5.80;;
12469;SDS011;36499;46.484;13.832;2022-11-15T15:30:26;7.27;;;5.80;;
12469;SDS011;36499;46.484;13.832;2022-11-15T15:32:55;6.97;;;5.13;;
12469;SDS011;36499;46.484;13.832;2022-11-15T15:35:23;8.23;;;5.53;;